Time;durP1;ratioP1;P1;durP2;ratioP2;P2;SDS_P1;SDS_P2;PMS_P1;PMS_P2;Temp;Humidity;BMP_temperature;BMP_pressure;BME280_temperature;BME280_humidity;BME280_pressure;Samples;Min_cycle;Max_cycle;Signal;HPM_P1;HPM_P2
2021/12/15 00:02:00;;;;;;;33.98;18.50;;;;;;;1.45;84.42;101296.43;1783458;80;20927;-70
2021/12/15 00:04:26;;;;;;;34.90;18.42;;;;;;;1.45;84.47;101302.45;1783494;80;20896;-70
2021/12/15 00:06:52;;;;;;;36.77;17.42;;;;;;;1.49;84.42;101315.33;1778720;80;22149;-70
2021/12/15 00:09:19;;;;;;;35.70;17.15;;;;;;;1.48;84.28;101328.69;1775276;80;20920;-70
2021/12/15 00:11:46;;;;;;;35.65;18.80;;;;;;;1.48;84.33;101346.78;1775151;80;21382;-71
2021/12/15 00:14:17;;;;;;;32.48;16.87;;;;;;;1.50;84.36;101360.55;1775269;80;20905;-70
2021/12/15 00:16:46;;;;;;;33.92;16.95;;;;;;;1.54;84.36;101354.48;1775268;80;20964;-71
2021/12/15 00:19:13;;;;;;;26.87;15.90;;;;;;;1.57;84.40;101362.63;1775214;80;21512;-70
2021/12/15 00:21:40;;;;;;;27.27;16.95;;;;;;;1.61;84.34;101356.11;1775035;80;20920;-71
2021/12/15 00:24:08;;;;;;;27.62;16.50;;;;;;;1.67;84.40;101359.09;1775128;80;21463;-71
2021/12/15 00:26:35;;;;;;;33.85;18.57;;;;;;;1.68;84.20;101357.34;1775162;80;21422;-70
2021/12/15 00:29:05;;;;;;;30.25;17.52;;;;;;;1.70;84.16;101355.16;1775376;80;20904;-70
2021/12/15 00:31:33;;;;;;;32.28;18.62;;;;;;;1.70;83.93;101351.28;1775262;80;21146;-70
2021/12/15 00:34:01;;;;;;;26.55;15.08;;;;;;;1.71;83.78;101352.13;1774993;80;20932;-70
2021/12/15 00:36:28;;;;;;;28.77;15.75;;;;;;;1.70;83.58;101347.41;1775196;80;20940;-70
2021/12/15 00:38:55;;;;;;;29.07;15.88;;;;;;;1.65;83.60;101342.28;1775077;80;20936;-70
2021/12/15 00:41:22;;;;;;;27.60;15.58;;;;;;;1.64;83.78;101342.30;1775352;80;20959;-70
2021/12/15 00:43:48;;;;;;;28.02;15.65;;;;;;;1.64;83.83;101338.41;1776026;80;22150;-69
2021/12/15 00:46:15;;;;;;;29.98;16.07;;;;;;;1.64;83.99;101334.09;1775540;80;20920;-69
2021/12/15 00:48:45;;;;;;;28.65;15.08;;;;;;;1.70;84.00;101342.67;1775296;80;21378;-70
2021/12/15 00:51:12;;;;;;;26.57;16.02;;;;;;;1.73;84.08;101339.59;1775408;80;21015;-70
2021/12/15 00:53:39;;;;;;;25.85;15.93;;;;;;;1.76;83.93;101343.45;1775228;80;20931;-71
2021/12/15 00:56:05;;;;;;;23.92;15.55;;;;;;;1.78;83.92;101330.48;1775413;80;21743;-71
2021/12/15 00:58:32;;;;;;;28.77;16.20;;;;;;;1.80;83.98;101330.92;1775088;80;20952;-70
2021/12/15 01:01:01;;;;;;;27.25;15.65;;;;;;;1.82;84.00;101322.70;1775352;80;20928;-71
2021/12/15 01:03:29;;;;;;;21.25;13.88;;;;;;;1.86;83.94;101317.03;1775154;80;21490;-70
2021/12/15 01:06:03;;;;;;;27.27;15.70;;;;;;;1.88;83.87;101301.52;1774995;80;21334;-70
2021/12/15 01:08:29;;;;;;;28.02;15.43;;;;;;;1.89;83.77;101309.26;1774748;80;21183;-70
2021/12/15 01:11:16;;;;;;;27.85;16.27;;;;;;;1.91;83.77;101311.36;1775409;80;21431;-71
2021/12/15 01:22:02;;;;;;;26.68;15.75;;;;;;;1.81;83.68;101312.38;1775437;80;22142;-71
2021/12/15 01:24:30;;;;;;;24.25;14.98;;;;;;;1.78;83.78;101314.56;1775075;80;20885;-72
2021/12/15 01:26:57;;;;;;;25.32;15.28;;;;;;;1.80;83.85;101320.98;1752999;80;20877;-72
2021/12/15 01:29:23;;;;;;;25.37;15.50;;;;;;;1.80;84.02;101324.45;1775221;80;21023;-70
2021/12/15 01:31:50;;;;;;;27.42;16.12;;;;;;;1.81;83.99;101324.86;1775401;80;20884;-71
2021/12/15 01:34:17;;;;;;;28.38;15.80;;;;;;;1.83;84.04;101320.97;1775141;80;21363;-70
2021/12/15 01:36:44;;;;;;;27.40;16.80;;;;;;;1.85;84.24;101322.66;1775325;80;20944;-70
2021/12/15 01:39:11;;;;;;;29.50;16.25;;;;;;;1.89;84.36;101318.31;1775036;80;20987;-70
2021/12/15 01:41:39;;;;;;;31.57;15.60;;;;;;;1.95;84.35;101323.38;1775176;80;20940;-70
2021/12/15 01:46:58;;;;;;;35.88;18.50;;;;;;;2.00;84.11;101333.25;1775400;80;21109;-70
2021/12/15 01:49:45;;;;;;;30.92;17.75;;;;;;;1.99;84.18;101330.23;1775108;80;20825;-70
2021/12/15 01:52:17;;;;;;;29.45;17.17;;;;;;;1.98;84.21;101332.41;1775467;80;21486;-70
2021/12/15 01:54:50;;;;;;;31.73;19.45;;;;;;;1.98;84.17;101332.41;1775112;80;20967;-71
2021/12/15 01:57:18;;;;;;;31.70;16.87;;;;;;;1.99;84.17;101331.52;1775450;80;20889;-70
2021/12/15 01:59:46;;;;;;;28.05;15.80;;;;;;;2.02;84.18;101330.21;1775300;80;21514;-70
2021/12/15 02:02:14;;;;;;;28.67;14.45;;;;;;;2.01;84.15;101334.09;1775399;80;20897;-70
2021/12/15 02:04:41;;;;;;;24.30;14.60;;;;;;;1.95;84.26;101336.31;1775007;80;20896;-70
2021/12/15 02:07:08;;;;;;;29.65;15.03;;;;;;;1.90;84.44;101334.23;1778546;80;20940;-70
2021/12/15 02:10:01;;;;;;;28.55;15.93;;;;;;;1.89;84.52;101331.66;1783303;80;21350;-69
2021/12/15 02:12:11;;;;;;;;;;;;;;;1.85;84.65;101334.73;1783043;80;21457;-70
2021/12/15 02:14:40;;;;;;;26.25;14.33;;;;;;;1.84;84.80;101343.35;1783795;80;20100;-70
2021/12/15 02:17:08;;;;;;;28.70;17.20;;;;;;;1.81;84.94;101333.91;1783740;80;20920;-70
2021/12/15 02:19:35;;;;;;;26.97;15.75;;;;;;;1.80;85.07;101333.50;1783414;80;20892;-70
2021/12/15 02:22:03;;;;;;;24.90;13.53;;;;;;;1.82;85.09;101348.98;1783494;80;21389;-70
2021/12/15 02:24:34;;;;;;;28.27;13.80;;;;;;;1.84;85.17;101351.11;1783418;80;21366;-71
2021/12/15 02:27:01;;;;;;;31.27;16.45;;;;;;;1.82;85.17;101355.44;1783614;80;21414;-71
2021/12/15 02:29:33;;;;;;;26.05;14.00;;;;;;;1.80;85.22;101350.31;1783565;80;20900;-71
2021/12/15 02:32:15;;;;;;;25.80;15.55;;;;;;;1.79;85.32;101349.88;1782849;80;20881;-71
2021/12/15 02:37:17;;;;;;;24.52;14.07;;;;;;;1.81;85.33;101351.16;1783595;80;21076;-71
2021/12/15 02:39:49;;;;;;;24.80;14.03;;;;;;;1.80;85.34;101349.02;1783730;80;20936;-70
2021/12/15 02:42:16;;;;;;;24.77;13.90;;;;;;;1.80;85.36;101359.36;1783615;80;20916;-71
2021/12/15 02:44:44;;;;;;;24.75;14.58;;;;;;;1.83;85.48;101353.30;1783443;80;20900;-71
2021/12/15 02:47:14;;;;;;;23.10;14.23;;;;;;;1.85;85.46;101347.67;1783520;80;20963;-71
2021/12/15 02:49:41;;;;;;;24.65;13.43;;;;;;;1.86;85.46;101350.66;1783567;80;21125;-71
2021/12/15 02:52:08;;;;;;;23.30;12.47;;;;;;;1.87;85.51;101348.51;1783396;80;20911;-71
2021/12/15 02:54:35;;;;;;;27.52;13.18;;;;;;;1.90;85.48;101339.85;1783842;80;20967;-70
2021/12/15 02:57:06;;;;;;;22.42;14.47;;;;;;;1.91;85.46;101341.10;1783667;80;20888;-71
2021/12/15 02:59:44;;;;;;;20.90;12.40;;;;;;;1.90;85.35;101338.11;1783781;80;20920;-71
2021/12/15 03:04:50;;;;;;;24.57;14.47;;;;;;;1.92;85.47;101338.10;1783436;80;20924;-71
2021/12/15 03:07:31;;;;;;;20.65;12.10;;;;;;;1.95;85.41;101335.47;1779951;80;21469;-71
2021/12/15 03:18:20;;;;;;;20.57;11.43;;;;;;;2.08;85.04;101345.63;1775444;80;21477;-71
2021/12/15 03:20:53;;;;;;;15.78;10.20;;;;;;;2.10;84.77;101345.62;1775225;80;21136;-71
2021/12/15 03:23:38;;;;;;;14.05;9.23;;;;;;;2.09;84.59;101349.09;1775548;80;20932;-71
2021/12/15 03:26:03;;;;;;;17.23;9.35;;;;;;;2.06;84.41;101344.78;1774891;80;20921;-70
2021/12/15 03:39:23;;;;;;;12.28;8.18;;;;;;;1.89;84.31;101363.98;1775299;80;21441;-70
2021/12/15 03:41:57;;;;;;;12.13;8.00;;;;;;;1.93;84.46;101356.61;1776576;80;21132;-71
2021/12/15 03:44:20;;;;;;;11.63;8.55;;;;;;;1.95;84.36;101353.13;1774712;80;21400;-72
2021/12/15 03:46:47;;;;;;;12.60;8.70;;;;;;;1.98;84.20;101359.58;1775328;80;20934;-72
2021/12/15 03:49:13;;;;;;;13.90;9.80;;;;;;;2.01;83.99;101362.11;1775187;80;20975;-72
2021/12/15 03:51:41;;;;;;;11.38;7.78;;;;;;;2.02;84.02;101359.95;1775287;80;21470;-71
2021/12/15 03:54:08;;;;;;;14.50;9.10;;;;;;;2.04;83.83;101358.63;1775192;80;21147;-73
2021/12/15 03:56:36;;;;;;;17.00;10.00;;;;;;;2.01;83.72;101358.23;1775259;80;20889;-70
2021/12/15 03:59:03;;;;;;;14.07;9.65;;;;;;;1.96;83.59;101360.03;1775172;80;20901;-71
2021/12/15 04:01:31;;;;;;;13.90;8.68;;;;;;;1.89;83.62;101371.33;1775257;80;20869;-72
2021/12/15 04:03:58;;;;;;;13.45;8.75;;;;;;;1.83;83.64;101359.76;1775288;80;20842;-72
2021/12/15 04:06:30;;;;;;;14.50;8.80;;;;;;;1.78;83.81;101369.28;1775204;80;21614;-72
2021/12/15 04:08:58;;;;;;;13.55;9.90;;;;;;;1.76;83.94;101371.05;1768671;80;20905;-71
2021/12/15 04:11:27;;;;;;;13.20;9.88;;;;;;;1.76;84.05;101376.22;1768076;81;20956;-72
2021/12/15 04:13:59;;;;;;;14.70;9.03;;;;;;;1.79;84.16;101374.88;1768303;80;20980;-70
2021/12/15 04:16:41;;;;;;;13.83;8.70;;;;;;;1.81;84.04;101366.23;1767347;81;20893;-71
2021/12/15 04:18:54;;;;;;;13.93;9.68;;;;;;;1.83;83.88;101372.69;1765244;81;21110;-71
2021/12/15 04:21:22;;;;;;;12.07;8.88;;;;;;;1.86;83.77;101370.91;1768070;80;20995;-71
2021/12/15 04:23:52;;;;;;;13.43;9.80;;;;;;;1.91;83.63;101374.72;1768278;81;21407;-71
2021/12/15 04:26:19;;;;;;;14.55;10.25;;;;;;;1.95;83.52;101367.34;1767941;80;20968;-72
2021/12/15 04:28:46;;;;;;;13.43;9.98;;;;;;;2.00;83.59;101364.30;1768470;81;20884;-71
2021/12/15 04:31:18;;;;;;;12.05;8.78;;;;;;;2.05;83.39;101371.55;1768808;81;20932;-71
2021/12/15 04:33:54;;;;;;;15.72;10.35;;;;;;;2.06;82.90;101365.48;1768797;81;20893;-71
2021/12/15 04:36:21;;;;;;;14.75;9.70;;;;;;;2.03;82.74;101373.73;1768568;80;21379;-72
2021/12/15 04:38:48;;;;;;;13.03;9.05;;;;;;;1.98;82.80;101376.80;1768134;81;21435;-71
2021/12/15 04:41:16;;;;;;;11.03;8.78;;;;;;;1.97;82.90;101366.05;1782269;80;20913;-72
2021/12/15 04:43:44;;;;;;;15.38;9.45;;;;;;;1.99;82.89;101372.06;1789418;80;21504;-73
2021/12/15 04:46:12;;;;;;;13.18;9.05;;;;;;;2.01;82.92;101372.45;1788917;78;20976;-70
2021/12/15 04:48:41;;;;;;;14.07;10.25;;;;;;;2.01;82.73;101372.45;1789329;80;21395;-72
2021/12/15 04:51:08;;;;;;;15.08;9.85;;;;;;;1.98;82.39;101377.68;1788846;79;20979;-71
2021/12/15 04:53:37;;;;;;;13.80;8.78;;;;;;;1.94;82.39;101373.86;1788998;78;20948;-72
2021/12/15 04:56:05;;;;;;;10.68;8.40;;;;;;;1.92;82.27;101378.19;1789017;80;21551;-71
2021/12/15 04:58:32;;;;;;;11.50;8.48;;;;;;;1.88;82.42;101376.06;1788829;79;21425;-72
2021/12/15 05:01:01;;;;;;;11.93;8.15;;;;;;;1.89;82.45;101374.33;1789058;80;20952;-72
2021/12/15 05:03:28;;;;;;;12.65;8.35;;;;;;;1.92;82.66;101375.60;1789224;78;20962;-72
2021/12/15 05:05:55;;;;;;;11.40;8.45;;;;;;;1.96;82.65;101375.98;1788948;80;20987;-72
2021/12/15 05:08:22;;;;;;;14.98;9.53;;;;;;;1.97;82.63;101375.95;1789310;80;22156;-71
2021/12/15 05:10:54;;;;;;;17.82;10.82;;;;;;;1.98;82.74;101379.38;1790847;79;20841;-72
2021/12/15 05:13:19;;;;;;;13.48;9.20;;;;;;;1.98;82.71;101379.38;1789743;79;20900;-72
2021/12/15 05:15:46;;;;;;;13.78;9.75;;;;;;;1.95;82.62;101384.16;1789702;79;20885;-72
2021/12/15 05:18:13;;;;;;;15.95;11.30;;;;;;;1.92;82.63;101377.75;1789483;80;20936;-73
2021/12/15 05:20:46;;;;;;;11.60;8.38;;;;;;;1.83;82.72;101378.70;1789984;80;21375;-71
2021/12/15 05:23:11;;;;;;;11.90;8.30;;;;;;;1.78;82.93;101382.20;1789267;79;20854;-72
2021/12/15 05:25:38;;;;;;;12.28;8.48;;;;;;;1.75;83.07;101388.72;1789385;79;20928;-72
2021/12/15 05:28:05;;;;;;;12.58;8.30;;;;;;;1.71;83.26;101376.69;1789411;80;21417;-72
2021/12/15 05:30:33;;;;;;;11.33;8.30;;;;;;;1.68;83.41;101377.59;1789476;80;20960;-72
2021/12/15 05:33:00;;;;;;;13.95;9.60;;;;;;;1.66;83.37;101381.47;1789451;80;21923;-71
2021/12/15 05:35:26;;;;;;;12.28;8.30;;;;;;;1.65;83.46;101373.75;1789705;80;20929;-73
2021/12/15 05:37:56;;;;;;;16.10;9.60;;;;;;;1.64;83.64;101375.45;1789400;79;20885;-71
2021/12/15 05:40:24;;;;;;;14.68;9.33;;;;;;;1.68;83.64;101378.88;1789488;80;20976;-71
2021/12/15 05:42:50;;;;;;;9.30;7.85;;;;;;;1.75;83.72;101373.20;1789573;80;20920;-72
2021/12/15 05:45:17;;;;;;;12.55;8.88;;;;;;;1.80;83.43;101371.41;1789393;79;21041;-71
2021/12/15 05:47:44;;;;;;;12.78;9.08;;;;;;;1.83;83.51;101370.95;1789310;80;20920;-72
2021/12/15 05:50:12;;;;;;;14.55;9.60;;;;;;;1.87;83.20;101378.25;1789478;80;21323;-71
2021/12/15 05:52:39;;;;;;;15.08;10.53;;;;;;;1.88;83.13;101377.36;1789355;80;20935;-71
2021/12/15 05:55:08;;;;;;;17.37;10.38;;;;;;;1.90;82.98;101373.47;1789544;79;21018;-71
2021/12/15 05:57:35;;;;;;;16.73;10.65;;;;;;;1.90;82.84;101381.23;1789334;79;21151;-73
2021/12/15 06:00:10;;;;;;;14.53;8.90;;;;;;;1.90;82.98;101387.25;1789483;80;20968;-72
2021/12/15 06:02:38;;;;;;;14.98;10.40;;;;;;;1.90;82.88;101387.25;1789473;79;21386;-71
2021/12/15 06:05:07;;;;;;;13.98;9.03;;;;;;;1.90;82.79;101390.28;1789405;80;20960;-71
2021/12/15 06:07:37;;;;;;;18.12;12.10;;;;;;;1.86;82.90;101383.83;1788862;79;20917;-72
2021/12/15 06:10:06;;;;;;;15.18;10.03;;;;;;;1.89;82.98;101389.84;1783302;80;21149;-73
2021/12/15 06:12:35;;;;;;;16.62;11.93;;;;;;;1.86;82.82;101380.39;1783175;80;21295;-72
2021/12/15 06:15:02;;;;;;;16.37;11.08;;;;;;;1.83;82.84;101389.05;1783330;79;20920;-71
2021/12/15 06:17:31;;;;;;;14.43;8.68;;;;;;;1.82;82.85;101398.11;1783222;80;20861;-73
2021/12/15 06:22:45;;;;;;;17.42;10.18;;;;;;;1.79;82.68;101401.59;1797753;79;22259;-72
2021/12/15 06:25:12;;;;;;;15.45;10.18;;;;;;;1.73;82.81;101404.68;1758244;80;21406;-71
2021/12/15 06:27:40;;;;;;;14.68;9.55;;;;;;;1.77;83.05;101402.48;1758273;80;21123;-71
2021/12/15 06:30:08;;;;;;;15.90;11.08;;;;;;;1.82;83.07;101401.58;1757889;80;20873;-71
2021/12/15 06:32:35;;;;;;;17.12;11.22;;;;;;;1.86;82.94;101407.11;1758056;80;20943;-70
2021/12/15 06:35:03;;;;;;;17.25;11.63;;;;;;;1.91;82.80;101409.64;1758234;80;20936;-70
2021/12/15 06:37:30;;;;;;;19.40;12.40;;;;;;;1.90;82.80;101406.65;1758265;80;21007;-71
2021/12/15 06:39:57;;;;;;;17.12;11.03;;;;;;;1.89;82.69;101405.36;1759041;80;21128;-71
2021/12/15 06:42:24;;;;;;;15.40;9.98;;;;;;;1.90;82.66;101408.39;1758257;80;20960;-71
2021/12/15 06:44:51;;;;;;;18.30;11.53;;;;;;;1.89;82.56;101415.30;1758288;80;21414;-72
2021/12/15 07:00:33;;;;;;;22.90;12.85;;;;;;;1.97;82.88;101413.90;1758087;81;20889;-71
2021/12/15 07:03:01;;;;;;;22.23;11.27;;;;;;;2.03;82.75;101417.72;1757514;81;20956;-71
2021/12/15 07:05:29;;;;;;;17.30;11.85;;;;;;;2.06;82.66;101421.55;1758324;80;22143;-70
2021/12/15 07:07:57;;;;;;;15.70;10.95;;;;;;;2.07;82.20;101422.83;1758414;80;21296;-71
2021/12/15 07:10:27;;;;;;;22.10;11.93;;;;;;;2.02;82.20;101419.86;1758201;80;20949;-70
2021/12/15 07:12:55;;;;;;;18.00;10.15;;;;;;;2.01;82.22;101423.34;1758433;80;20873;-71
2021/12/15 07:15:22;;;;;;;15.85;10.93;;;;;;;2.02;82.04;101428.92;1758361;80;21398;-70
2021/12/15 07:17:52;;;;;;;14.80;9.98;;;;;;;2.00;81.83;101427.66;1758399;81;21543;-70
2021/12/15 07:20:38;;;;;;;15.85;9.70;;;;;;;1.99;81.77;101422.50;1758320;80;20868;-72
2021/12/15 07:23:01;;;;;;;13.53;9.43;;;;;;;1.98;81.84;101424.65;1757981;80;21058;-71
2021/12/15 07:25:29;;;;;;;18.32;10.60;;;;;;;1.97;81.96;101425.09;1758476;80;20892;-70
2021/12/15 07:27:56;;;;;;;15.65;10.40;;;;;;;1.98;82.15;101429.41;1758680;81;21283;-71
2021/12/15 07:30:23;;;;;;;14.10;9.75;;;;;;;2.02;82.28;101429.80;1759021;80;21057;-72
2021/12/15 07:32:50;;;;;;;13.38;10.20;;;;;;;2.08;82.16;101434.03;1758116;81;21014;-70
2021/12/15 07:35:17;;;;;;;14.03;10.15;;;;;;;2.08;81.94;101428.86;1758120;81;20849;-70
2021/12/15 07:37:44;;;;;;;15.40;10.23;;;;;;;2.11;82.15;101430.55;1740903;81;20991;-71
2021/12/15 07:40:20;;;;;;;17.65;11.45;;;;;;;2.12;81.88;101425.80;1758091;81;20877;-71
2021/12/15 07:42:55;;;;;;;22.35;13.03;;;;;;;2.10;81.80;101426.27;1757426;80;21842;-72
2021/12/15 07:45:12;;;;;;;16.70;10.53;;;;;;;2.10;81.91;101428.41;1756710;81;20919;-72
2021/12/15 07:47:39;;;;;;;17.02;12.03;;;;;;;2.08;81.60;101425.83;1757974;81;20852;-71
2021/12/15 07:50:08;;;;;;;19.37;11.55;;;;;;;2.02;81.76;101427.63;1757955;80;20893;-77
2021/12/15 07:52:36;;;;;;;16.62;10.80;;;;;;;2.01;82.04;101422.05;1757931;80;20968;-70
2021/12/15 07:55:03;;;;;;;17.55;11.18;;;;;;;2.05;82.10;101421.14;1758139;81;21068;-72
2021/12/15 07:57:30;;;;;;;15.70;10.63;;;;;;;2.06;81.94;101424.13;1757750;80;20947;-72
2021/12/15 07:59:59;;;;;;;18.55;12.63;;;;;;;2.04;82.06;101418.97;1758084;81;20940;-71
2021/12/15 08:02:26;;;;;;;17.12;11.38;;;;;;;2.08;82.33;101419.80;1757786;80;21010;-73
2021/12/15 08:04:53;;;;;;;20.30;11.30;;;;;;;2.14;82.46;101409.83;1758071;81;20924;-70
2021/12/15 08:07:19;;;;;;;18.62;12.60;;;;;;;2.20;82.43;101412.31;1757874;81;22143;-71
2021/12/15 08:09:49;;;;;;;17.65;12.90;;;;;;;2.27;82.39;101410.09;1758723;81;20892;-72
2021/12/15 08:12:15;;;;;;;18.65;11.63;;;;;;;2.34;82.14;101413.02;1758036;81;21370;-73
2021/12/15 08:14:43;;;;;;;24.37;13.10;;;;;;;2.31;81.66;101431.15;1757747;81;20865;-72
2021/12/15 08:17:10;;;;;;;22.22;13.70;;;;;;;2.26;81.60;101422.59;1758046;81;20967;-72
2021/12/15 08:19:38;;;;;;;22.02;14.70;;;;;;;2.25;81.63;101417.02;1757980;81;21164;-72
2021/12/15 08:22:05;;;;;;;25.52;16.12;;;;;;;2.22;81.62;101416.63;1751113;80;21382;-72
2021/12/15 08:24:32;;;;;;;22.48;15.08;;;;;;;2.21;81.70;101407.13;1744704;80;20996;-72
2021/12/15 08:27:00;;;;;;;17.05;12.85;;;;;;;2.21;81.78;101402.41;1744466;81;21011;-71
2021/12/15 08:29:26;;;;;;;18.35;12.35;;;;;;;2.21;81.97;101405.84;1744597;81;21410;-71
2021/12/15 08:31:54;;;;;;;20.35;12.47;;;;;;;2.24;81.99;101404.94;1744622;82;21141;-73
2021/12/15 08:34:22;;;;;;;14.85;10.45;;;;;;;2.27;82.09;101399.30;1744300;81;20939;-72
2021/12/15 08:36:51;;;;;;;15.28;11.48;;;;;;;2.34;82.07;101394.05;1744501;81;21504;-72
2021/12/15 08:39:18;;;;;;;18.67;11.20;;;;;;;2.36;81.94;101402.20;1744262;81;20925;-71
2021/12/15 08:41:46;;;;;;;19.85;11.48;;;;;;;2.39;81.77;101402.59;1744464;81;20921;-71
2021/12/15 08:44:13;;;;;;;20.43;13.10;;;;;;;2.40;81.69;101401.29;1744233;81;21403;-70
2021/12/15 08:46:44;;;;;;;14.05;10.70;;;;;;;2.39;81.64;101395.68;1744552;82;20941;-71
2021/12/15 08:49:16;;;;;;;12.80;10.13;;;;;;;2.41;81.64;101395.67;1744497;81;20917;-70
2021/12/15 08:51:45;;;;;;;15.60;10.28;;;;;;;2.41;81.40;101400.40;1744638;81;20948;-71
2021/12/15 08:54:14;;;;;;;15.13;9.13;;;;;;;2.37;81.51;101392.25;1744489;81;20976;-70
2021/12/15 08:56:44;;;;;;;18.00;11.25;;;;;;;2.38;81.59;101387.52;1744545;80;20866;-71
2021/12/15 08:59:11;;;;;;;16.77;11.10;;;;;;;2.36;81.72;101378.91;1744664;81;21355;-71
2021/12/15 09:01:39;;;;;;;16.62;12.35;;;;;;;2.35;81.88;101377.62;1744518;81;20854;-71
2021/12/15 09:04:07;;;;;;;17.80;12.13;;;;;;;2.37;81.93;101379.31;1744570;81;21400;-70
2021/12/15 09:06:35;;;;;;;15.40;12.00;;;;;;;2.35;81.72;101379.77;1744462;81;20921;-71
2021/12/15 09:09:03;;;;;;;14.13;10.08;;;;;;;2.34;81.88;101374.64;1744523;81;21152;-71
2021/12/15 09:11:30;;;;;;;18.37;11.48;;;;;;;2.31;81.96;101374.66;1744147;81;20889;-71
2021/12/15 09:13:58;;;;;;;15.68;11.53;;;;;;;2.28;82.30;101369.94;1744504;81;20925;-71
2021/12/15 09:16:27;;;;;;;16.48;11.68;;;;;;;2.32;82.27;101362.16;1744677;81;20998;-71
2021/12/15 09:18:54;;;;;;;18.17;10.68;;;;;;;2.30;82.32;101362.61;1744607;81;20913;-71
2021/12/15 09:21:24;;;;;;;15.88;11.65;;;;;;;2.33;82.36;101367.73;1744355;80;21525;-73
2021/12/15 09:23:51;;;;;;;15.20;11.78;;;;;;;2.35;82.23;101373.30;1744354;81;21466;-73
2021/12/15 09:26:20;;;;;;;17.02;11.55;;;;;;;2.36;82.35;101368.56;1744461;81;20901;-74
2021/12/15 09:28:48;;;;;;;15.98;9.48;;;;;;;2.36;82.45;101366.41;1744594;81;20921;-73
2021/12/15 09:31:16;;;;;;;14.25;10.93;;;;;;;2.33;82.51;101366.44;1744432;81;20842;-71
2021/12/15 09:33:45;;;;;;;17.42;11.88;;;;;;;2.35;82.55;101366.83;1744666;82;21157;-72
2021/12/15 09:36:13;;;;;;;15.83;12.53;;;;;;;2.35;82.71;101364.24;1744384;81;20950;-72
2021/12/15 09:38:42;;;;;;;15.63;11.85;;;;;;;2.36;82.82;101364.67;1745167;81;20980;-70
2021/12/15 09:41:11;;;;;;;15.30;11.53;;;;;;;2.34;82.83;101354.78;1744586;81;20901;-72
2021/12/15 09:43:38;;;;;;;18.07;12.65;;;;;;;2.35;82.88;101360.36;1744711;81;20881;-71
2021/12/15 09:46:17;;;;;;;15.20;11.18;;;;;;;2.37;82.89;101365.52;1744582;82;21085;-71
2021/12/15 10:02:45;;;;;;;13.75;9.55;;;;;;;2.52;83.10;101357.54;1744437;81;21501;-72
2021/12/15 10:05:24;;;;;;;14.68;9.65;;;;;;;2.57;83.26;101352.30;1744021;81;22405;-71
2021/12/15 10:10:43;;;;;;;14.43;10.20;;;;;;;2.63;83.09;101361.27;1744334;80;20933;-70
2021/12/15 10:18:53;;;;;;;13.22;9.80;;;;;;;2.72;83.01;101353.35;1744325;81;20884;-70
2021/12/15 10:21:09;;;;;;;15.30;10.00;;;;;;;2.67;82.90;101351.28;1741306;80;20949;-71
2021/12/15 10:23:39;;;;;;;13.60;9.83;;;;;;;2.64;82.94;101351.31;1754927;80;20923;-70
2021/12/15 10:26:06;;;;;;;15.78;9.05;;;;;;;2.62;83.08;101356.53;1757650;81;21581;-72
2021/12/15 10:28:35;;;;;;;12.78;9.95;;;;;;;2.57;83.18;101355.73;1757766;81;20881;-69
2021/12/15 10:31:09;;;;;;;12.40;9.20;;;;;;;2.55;83.31;101350.16;1757710;81;20928;-70
2021/12/15 10:33:47;;;;;;;12.37;8.75;;;;;;;2.56;83.37;101348.85;1757822;81;20916;-71
2021/12/15 10:36:20;;;;;;;12.80;9.88;;;;;;;2.57;83.38;101351.00;1757777;81;20912;-72
2021/12/15 10:38:55;;;;;;;10.45;8.73;;;;;;;2.56;83.33;101344.12;1757789;81;21151;-71
2021/12/15 10:41:38;;;;;;;14.43;9.20;;;;;;;2.54;83.49;101340.25;1757776;80;20897;-72
2021/12/15 10:44:12;;;;;;;14.33;8.83;;;;;;;2.52;83.40;101339.42;1757679;81;20960;-72
2021/12/15 10:46:53;;;;;;;12.58;9.45;;;;;;;2.46;83.46;101340.35;1757658;81;20979;-73
2021/12/15 10:49:27;;;;;;;10.98;8.98;;;;;;;2.42;83.54;101348.19;1746960;80;21575;-72
2021/12/15 10:52:01;;;;;;;14.98;10.72;;;;;;;2.41;83.56;101351.67;1757857;81;21182;-72
2021/12/15 10:54:39;;;;;;;13.22;9.53;;;;;;;2.42;83.74;101348.19;1757718;81;20900;-72
2021/12/15 10:57:13;;;;;;;13.50;9.40;;;;;;;2.43;83.79;101340.86;1757741;81;20912;-73
2021/12/15 10:59:52;;;;;;;14.27;9.07;;;;;;;2.44;83.87;101338.66;1757315;81;20920;-72
2021/12/15 11:02:24;;;;;;;16.45;10.55;;;;;;;2.46;83.91;101337.77;1757711;81;20916;-70
2021/12/15 11:05:00;;;;;;;11.33;8.93;;;;;;;2.51;83.76;101350.63;1740854;81;21146;-72
2021/12/15 11:07:34;;;;;;;11.53;8.73;;;;;;;2.54;83.76;101347.17;1758242;81;20927;-73
2021/12/15 11:10:11;;;;;;;;;;;;;;;2.56;83.63;101341.09;1760858;81;20955;-71
2021/12/15 11:12:54;;;;;;;9.95;8.20;;;;;;;2.55;83.45;101340.66;1757948;81;20081;-71
2021/12/15 11:15:33;;;;;;;12.78;9.60;;;;;;;2.55;83.44;101343.24;1746089;81;20994;-70
2021/12/15 11:18:03;;;;;;;12.23;9.15;;;;;;;2.57;83.55;101340.19;1758144;81;21149;-71
2021/12/15 11:20:37;;;;;;;12.23;9.28;;;;;;;2.59;83.48;101339.73;1757691;80;20939;-70
2021/12/15 11:23:11;;;;;;;12.55;9.13;;;;;;;2.61;83.35;101346.19;1757853;80;21552;-71
2021/12/15 11:26:01;;;;;;;12.18;8.03;;;;;;;2.60;83.27;101336.70;1757770;81;20889;-71
2021/12/15 11:28:36;;;;;;;11.60;8.78;;;;;;;2.61;83.32;101341.02;1758016;81;20892;-71
2021/12/15 11:31:18;;;;;;;11.53;8.58;;;;;;;2.59;83.27;101337.14;1758076;81;21791;-71
2021/12/15 11:33:55;;;;;;;12.15;7.95;;;;;;;2.59;83.27;101343.62;1757932;81;20919;-70
2021/12/15 11:36:37;;;;;;;11.93;8.75;;;;;;;2.59;83.14;101342.77;1753789;81;20932;-72
2021/12/15 11:39:17;;;;;;;13.00;8.70;;;;;;;2.57;83.18;101340.19;1757303;80;20888;-72
2021/12/15 11:41:50;;;;;;;12.85;10.05;;;;;;;2.54;83.22;101340.70;1756831;80;20972;-69
2021/12/15 11:44:19;;;;;;;13.38;9.95;;;;;;;2.55;83.33;101345.83;1757925;81;21141;-73
2021/12/15 11:47:00;;;;;;;13.68;10.00;;;;;;;2.58;83.17;101350.98;1758108;81;20888;-73
2021/12/15 11:49:31;;;;;;;12.43;8.23;;;;;;;2.63;83.32;101349.17;1757977;80;20908;-72
2021/12/15 11:52:14;;;;;;;12.50;9.35;;;;;;;2.69;83.13;101353.38;1758033;81;20936;-71
2021/12/15 11:54:46;;;;;;;17.05;12.53;;;;;;;2.69;83.21;101343.91;1757880;81;21018;-71
2021/12/15 11:57:25;;;;;;;13.43;11.03;;;;;;;2.70;83.17;101349.93;1758298;81;21107;-72
2021/12/15 11:59:56;;;;;;;14.87;10.70;;;;;;;2.69;83.25;101355.56;1757802;81;20986;-72
2021/12/15 12:02:40;;;;;;;16.37;11.15;;;;;;;2.67;83.13;101358.61;1758202;81;21366;-71
2021/12/15 12:05:18;;;;;;;15.55;10.88;;;;;;;2.61;83.15;101363.02;1757784;81;20924;-71
2021/12/15 12:07:56;;;;;;;12.25;9.83;;;;;;;2.54;83.31;101363.55;1757425;81;20952;-73
2021/12/15 12:10:44;;;;;;;12.33;9.80;;;;;;;2.49;83.40;101355.01;1757779;81;21426;-70
2021/12/15 12:13:13;;;;;;;12.00;9.28;;;;;;;2.43;83.59;101365.44;1757617;81;20860;-71
2021/12/15 12:15:42;;;;;;;13.98;10.03;;;;;;;2.39;83.84;101371.09;1757802;80;20885;-72
2021/12/15 12:18:14;;;;;;;17.65;11.55;;;;;;;2.39;84.01;101374.12;1757730;81;20975;-72
2021/12/15 12:20:45;;;;;;;13.65;10.28;;;;;;;2.40;84.19;101372.82;1757802;81;21536;-71
2021/12/15 12:23:18;;;;;;;10.32;8.80;;;;;;;2.46;84.19;101373.16;1753139;80;20845;-71
2021/12/15 12:25:48;;;;;;;10.23;7.92;;;;;;;2.45;84.20;101367.12;1744435;81;20854;-72
2021/12/15 12:28:18;;;;;;;14.10;10.25;;;;;;;2.45;84.16;101364.98;1744791;81;20905;-72
2021/12/15 12:30:53;;;;;;;13.75;9.18;;;;;;;2.43;84.20;101361.12;1744699;81;20921;-72
2021/12/15 12:33:21;;;;;;;14.58;9.55;;;;;;;2.43;84.27;101361.56;1744764;81;20885;-72
2021/12/15 12:35:55;;;;;;;12.15;9.15;;;;;;;2.41;84.35;101366.75;1744457;80;21394;-72
2021/12/15 12:38:27;;;;;;;14.78;9.58;;;;;;;2.39;84.44;101369.80;1745983;81;20936;-72
2021/12/15 12:41:14;;;;;;;12.78;9.05;;;;;;;2.39;84.55;101367.66;1744681;81;20960;-72
2021/12/15 12:43:48;;;;;;;11.95;7.85;;;;;;;2.37;84.61;101365.08;1744307;81;20887;-72
2021/12/15 12:46:31;;;;;;;11.37;9.03;;;;;;;2.38;84.79;101376.28;1743437;81;21605;-72
2021/12/15 12:59:23;;;;;;;13.30;10.35;;;;;;;2.49;84.68;101387.37;1744514;81;21244;-72